Burgh le Marsh, United Kingdom
Current Conditions -  °F | °C
As of 1:50 AM on Sunday 23 Nov 2014 (Local Time) from EGXC Reporting Station
Haze Haze  
Wind Chill: 50°   Ceiling: 10000
Heat Index: 50°   Visibility: 2.8mi
Dew Point: 48°   Wind: 6mph
Humidity: 94%   Direction: 310°NW
Pressure: 29.97"   Gusts: NA
Location:  53.16°N, 0.24°E
Report Text: EGXC 230150Z 31005KT 4500 BR BKN100 10/09 Q1015 GRN
Loading
Personal Weather Stations






























Interactive Weather Map New forecast layout! Learn more

10-Day Weather Forecast

Advertisements
Track Severe Weather on mobile